Sunday, January 20, 2019, 2:01 AM EST
Back to Local

KITH, Ithaca, Ithaca Tompkins Regional Airport

Location: Ithaca, NY, United States Lat: 42.491
Local Time: 2:01 AM EST ( 7:01 GMT) Lon: -76.458
Time Zone: US/Eastern Elev: 1099 ft

Show me the last for .
Show Decoded

2019-01-20 01:42 METAR KITH 200642Z AUTO 29005KT 2SM -SN BR BKN014 OVC018 M07/M07 A2962 RMK AO2
                 P0000 =
2019-01-20 01:16 METAR KITH 200616Z AUTO 05003KT 1 1/4SM -SN BR SCT008 OVC014 M06/M07 A2964 RMK
                 AO2 P0000 =
2019-01-20 01:12 METAR KITH 200612Z AUTO 00000KT 1SM R32/5000VP6000FT -SN BR BKN009 OVC016
                 M07/M07 A2964 RMK AO2 CIG 007V014 P0000 =
2019-01-20 01:09 METAR KITH 200609Z AUTO 00000KT 3/4SM R32/5000VP6000FT -SN BR OVC011 M07/M07
                 A2964 RMK AO2 PRESFR P0000 =
2019-01-20 01:01 METAR KITH 200601Z AUTO 00000KT 1/2SM R32/4500VP6000FT SN FZFG OVC009 M07/M07
                 A2966 RMK AO2 CIG 007V012 P0000 =
2019-01-20 00:56 METAR KITH 200556Z AUTO 00000KT 3/4SM R32/4500VP6000FT -SN BR OVC011 M07/M08
                 A2966 RMK AO2 CIG 007V012 SLP062 P0000 60002 T10671078 11039 21083 56033 =
2019-01-20 00:24 METAR KITH 200524Z AUTO 00000KT 3/4SM R32/4500V5500FT -SN BR OVC009 M07/M08
                 A2970 RMK AO2 CIG 007V011 P0000 =
2019-01-20 00:16 METAR KITH 200516Z AUTO 30004KT 1SM R32/4500VP6000FT -SN BR OVC009 M07/M08 A2970
                 RMK AO2 CIG 007V011 P0000 =
2019-01-19 23:56 METAR KITH 200456Z AUTO 29005KT 3/4SM -SN BR OVC007 M07/M08 A2972 RMK AO2 SLP081
                 P0000 T10721083 410281083 RVRNO =
2019-01-19 23:26 METAR KITH 200426Z AUTO 30003KT 3/4SM R32/4000V4500FT -SN BR OVC007 M07/M08
                 A2973 RMK AO2 P0000 =
2019-01-19 22:56 METAR KITH 200356Z AUTO VRB03KT 1/2SM R32/4000V4500FT SN FZFG OVC007 M04/M06
                 A2976 RMK AO2 SLP095 P0001 T10441056 =
2019-01-19 22:52 METAR KITH 200352Z AUTO 11004KT 1/2SM R32/4000V4500FT SN FZFG OVC007 M05/M06
                 A2976 RMK AO2 P0001 =
2019-01-19 22:26 METAR KITH 200326Z AUTO 00000KT 3/4SM R32/5000VP6000FT -SN BR BKN009 OVC016
                 M04/M06 A2979 RMK AO2 CIG 008V012 P0000 =
2019-01-19 22:22 METAR KITH 200322Z AUTO 00000KT 1SM R32/5000VP6000FT -SN BR BKN011 OVC016
                 M04/M05 A2979 RMK AO2 CIG 008V012 P0000 =
2019-01-19 22:05 METAR KITH 200305Z AUTO VRB04KT 1 1/2SM -SN BR OVC014 M04/M05 A2981 RMK AO2
                 P0000 =
2019-01-19 21:56 METAR KITH 200256Z 11004KT 1SM R32/P6000FT -SN BR OVC014 M04/M05 A2981 RMK AO2
                 SLP110 P0000 60001 T10441050 58044 =
2019-01-19 20:56 METAR KITH 200156Z VRB03KT 3/4SM R32/5500V6000FT -SN BR OVC010 M07/M08 A2986 RMK
                 AO2 CIG 008V012 SLP130 P0000 T10721083 =
2019-01-19 19:56 METAR KITH 200056Z 00000KT 1SM R32/5500VP6000FT -SN BR OVC010 M08/M09 A2992 RMK
                 AO2 SLP149 P0001 T10831094 =
2019-01-19 18:56 METAR KITH 192356Z 00000KT 1SM R32/5000VP6000FT -SN BR OVC010 M08/M09 A2994 RMK
                 AO2 CIG 008V014 SLP158 P0000 60002 T10831094 11067 21083 58027 =
2019-01-19 17:56 METAR KITH 192256Z 33003KT 3SM -SN BR BKN037 OVC048 M08/M09 A2998 RMK AO2 SLP168
                 P0000 T10831094 =
2019-01-19 16:56 METAR KITH 192156Z 29005KT 1 3/4SM -SN BR OVC025 M08/M09 A3002 RMK AO2 SLP181
                 P0000 T10831094 =
2019-01-19 15:56 METAR KITH 192056Z 00000KT 3/4SM R32/3000V4000FT -SN BR OVC019 M07/M09 A3002 RMK
                 AO2 SLP184 P0001 60002 T10721089 58020 =
2019-01-19 14:56 METAR KITH 191956Z 00000KT 1SM R32/4500VP6000FT -SN BR OVC019 M07/M09 A3006 RMK
                 AO2 SNE03B19 SLP196 P0001 T10721089 =
2019-01-19 14:33 METAR KITH 191933Z 00000KT 1 3/4SM R32/6000VP6000FT -SN BR SCT019 OVC028 M08/M09
                 A3007 RMK AO2 SNE03B19 P0000 =
2019-01-19 13:56 METAR KITH 191856Z 00000KT 7SM -SN OVC028 M08/M09 A3008 RMK AO2 SNB30 SLP205
                 P0000 T10831094 =
2019-01-19 13:53 METAR KITH 191853Z 00000KT 7SM -SN OVC028 M08/M09 A3008 RMK AO2 SNB30 P0000 =
2019-01-19 12:56 METAR KITH 191756Z 29004KT 4SM BR SCT016 OVC032 M08/M10 A3012 RMK AO2 SNE48
                 SLP215 P0000 60002 T10781100 11067 21083 58036 =
2019-01-19 12:03 METAR KITH 191703Z 00000KT 1 1/2SM R32/6000VP6000FT -SN BKN020 OVC032 M07/M10
                 A3015 RMK AO2 P0000 =
2019-01-19 11:56 METAR KITH 191656Z 26003KT 1SM R32/P6000FT -SN BKN020 OVC032 M07/M10 A3015 RMK
                 AO2 SLP228 P0002 T10721100 =
2019-01-19 10:56 METAR KITH 191556Z 28005KT 1SM R32/P6000FT -SN BR BKN020 BKN024 OVC039 M08/M10
                 A3020 RMK AO2 SLP244 P0000 T10781100 =
2019-01-19 09:56 METAR KITH 191456Z 26006KT 1SM R32/5000VP6000FT -SN BR BKN014 OVC020 M08/M10
                 A3023 RMK AO2 SLP252 P0000 60000 T10831100 51013 =
2019-01-19 09:52 METAR KITH 191452Z 26005KT 1SM R32/4000VP6000FT -SN BR BKN014 OVC020 M08/M10
                 A3023 RMK AO2 P0000 =
2019-01-19 08:56 METAR KITH 191356Z 31006KT 2SM R32/5500VP6000FT -SN BR OVC009 M08/M10 A3022 RMK
                 AO2 SNB03 CIG 008V012 SLP249 P0000 T10831100 =
2019-01-19 07:56 METAR KITH 191256Z 30005KT 10SM OVC007 M08/M09 A3020 RMK AO2 SLP245 T10831094 =
2019-01-19 06:56 METAR KITH 191156Z 29010KT 10SM OVC004 M07/M08 A3019 RMK AO2 UPB24E27SNE24B27E51
                 CIG 002V006 SLP238 P0000 60000 70001 T10721078 11039 21072 53003 =
2019-01-19 06:31 METAR KITH 191131Z 31008KT 6SM -SN BR OVC004 M07/M07 A3017 RMK AO2
                 UPB24E27SNE24B27 P0000 =
2019-01-19 06:06 METAR KITH 191106Z AUTO 29008KT 5SM -SN BR BKN004 OVC009 M06/M07 A3017 RMK AO2
                 P0000 =
2019-01-19 05:56 METAR KITH 191056Z AUTO 29007KT 7SM -SN SCT004 BKN009 OVC016 M06/M06 A3016 RMK
                 AO2 CIG 007V012 SLP229 P0000 T10561061 =
2019-01-19 05:48 METAR KITH 191048Z AUTO 31006KT 7SM -SN FEW004 OVC009 M05/M06 A3016 RMK AO2 CIG
                 007V014 P0000 =
2019-01-19 05:34 METAR KITH 191034Z AUTO 30010KT 6SM -SN BR FEW004 OVC013 M05/M06 A3017 RMK AO2
                 P0000 =
2019-01-19 05:26 METAR KITH 191026Z AUTO 28006KT 7SM -SN FEW009 BKN016 OVC024 M04/M06 A3017 RMK
                 AO2 P0000 =
2019-01-19 05:21 METAR KITH 191021Z AUTO 29004KT 7SM -SN BKN011 BKN016 OVC024 M04/M07 A3017 RMK
                 AO2 P0000 =
2019-01-19 04:56 METAR KITH 190956Z AUTO 32003KT 9SM -SN OVC016 M04/M06 A3018 RMK AO2 SLP234
                 P0000 T10441061 =
2019-01-19 04:51 METAR KITH 190951Z AUTO 00000KT 9SM -SN OVC016 M04/M06 A3018 RMK AO2 P0000 =
2019-01-19 04:30 METAR KITH 190930Z AUTO 34003KT 9SM -SN OVC014 M04/M06 A3017 RMK AO2 P0000 =
2019-01-19 03:56 METAR KITH 190856Z AUTO 33005KT 8SM -SN BKN018 BKN028 OVC034 M04/M06 A3018 RMK
                 AO2 SLP235 P0000 60000 T10441061 51009 =
2019-01-19 03:03 METAR KITH 190803Z AUTO 00000KT 5SM -SN BR SCT015 BKN021 OVC029 M04/M06 A3018
                 RMK AO2 P0000 =
2019-01-19 02:56 METAR KITH 190756Z AUTO 32003KT 6SM -SN BR SCT021 OVC031 M04/M06 A3018 RMK AO2
                 SLP234 P0000 T10391061 =
2019-01-19 02:23 METAR KITH 190723Z AUTO 33004KT 9SM -SN SCT018 OVC031 M04/M06 A3018 RMK AO2
                 P0000 =

Support USWX by starting your Amazon purchase here.